Cotopaxi, Colorado
Current Conditions -  °F | °C
As of 8:55 PM on Tuesday 27 Jan 2015 (Local Time) from KANK Reporting Station
Scattered Clouds Scattered Clouds  
Wind Chill: 40°   Ceiling: Unl
Heat Index: 45°   Visibility: 10mi
Dew Point: 19°   Wind: 9mph
Humidity: 36%   Direction: 220°SW
Pressure: 30.29"   Gusts: 16mph
Location:  38.37°N, 105.69°W
Report Text: KANK 280355Z AUTO 22008G14KT 200V260 10SM SCT080 07/M07 A3029 RMK AO1 T00731070
Loading
Personal Weather Stations






























Interactive Weather Map New forecast layout! Learn more

10-Day Weather Forecast

Advertisements
Track Severe Weather on mobile